Time;durP1;ratioP1;P1;durP2;ratioP2;P2;SDS_P1;SDS_P2;PMS_P1;PMS_P2;Temp;Humidity;BMP_temperature;BMP_pressure;BME280_temperature;BME280_humidity;BME280_pressure;Samples;Min_cycle;Max_cycle;Signal;HPM_P1;HPM_P2
2022/02/17 00:00:30;;;;;;;;;;;;;;;0.03;66.77;98418.66;5124328;27;20046;-76
2022/02/17 00:02:57;;;;;;;35.23;15.97;;;;;;;-0.12;67.26;98420.00;5109506;28;19923;-74
2022/02/17 00:05:24;;;;;;;32.20;16.13;;;;;;;-0.11;67.35;98415.47;5132146;28;20047;-75
2022/02/17 00:07:52;;;;;;;33.50;14.87;;;;;;;-0.08;67.41;98409.59;5133179;28;20047;-75
2022/02/17 00:10:20;;;;;;;36.90;15.20;;;;;;;-0.05;67.15;98407.25;5113575;28;20039;-75
2022/02/17 00:12:46;;;;;;;32.60;15.03;;;;;;;-0.08;67.28;98412.28;5131503;28;20051;-76
2022/02/17 00:15:14;;;;;;;35.47;16.27;;;;;;;-0.09;67.59;98416.03;5132695;28;20395;-75
2022/02/17 00:17:40;;;;;;;31.87;16.03;;;;;;;-0.06;67.32;98394.88;5114709;28;20051;-76
2022/02/17 00:20:08;;;;;;;39.03;17.30;;;;;;;-0.08;67.31;98390.78;5113773;27;20050;-76
2022/02/17 00:22:34;;;;;;;32.93;15.47;;;;;;;-0.12;67.56;98389.63;5128568;28;20518;-75
2022/02/17 00:25:02;;;;;;;36.80;15.50;;;;;;;-0.06;67.57;98392.19;5132283;28;20047;-75
2022/02/17 00:27:30;;;;;;;34.63;16.40;;;;;;;-0.13;67.76;98369.19;5124964;28;20046;-75
2022/02/17 00:29:57;;;;;;;37.50;15.73;;;;;;;-0.07;67.65;98381.66;5131028;27;20046;-74
2022/02/17 00:32:24;;;;;;;33.67;16.03;;;;;;;-0.04;67.61;98375.81;5096641;28;20145;-75
2022/02/17 00:34:51;;;;;;;31.90;15.87;;;;;;;-0.03;67.65;98364.00;5125087;28;20107;-75
2022/02/17 00:37:18;;;;;;;32.67;15.90;;;;;;;0.00;67.40;98352.78;5132337;27;20133;-74
2022/02/17 00:39:44;;;;;;;34.87;17.50;;;;;;;0.04;67.52;98339.66;5127783;27;20055;-77
2022/02/17 00:42:12;;;;;;;37.90;18.03;;;;;;;0.06;67.44;98351.81;5097906;28;20051;-78
2022/02/17 00:44:38;;;;;;;41.53;18.52;;;;;;;0.03;67.45;98335.34;5127582;27;20059;-78
2022/02/17 00:47:06;;;;;;;37.90;18.60;;;;;;;0.01;67.66;98337.47;5108366;28;20035;-77
2022/02/17 00:49:32;;;;;;;43.13;18.40;;;;;;;-0.05;68.16;98323.13;5114653;28;20137;-77
2022/02/17 00:51:58;;;;;;;43.57;19.73;;;;;;;-0.10;67.91;98310.41;5128368;27;20093;-77
2022/02/17 00:54:24;;;;;;;45.77;20.13;;;;;;;-0.11;68.21;98292.66;5129101;28;20063;-77
2022/02/17 00:56:52;;;;;;;50.88;19.70;;;;;;;-0.12;68.35;98299.06;5104552;28;20138;-77
2022/02/17 00:59:19;;;;;;;57.00;22.23;;;;;;;-0.08;68.12;98289.50;5102999;28;20096;-75
2022/02/17 01:01:46;;;;;;;51.50;21.27;;;;;;;-0.10;68.19;98288.91;5121456;27;20506;-76
2022/02/17 01:04:12;;;;;;;60.95;23.63;;;;;;;-0.05;68.31;98275.56;5107840;28;20328;-75
2022/02/17 01:06:39;;;;;;;52.27;22.97;;;;;;;-0.06;68.42;98271.25;5110785;27;20043;-75
2022/02/17 01:09:05;;;;;;;50.63;21.00;;;;;;;-0.12;68.47;98260.66;5104077;28;20051;-75
2022/02/17 01:11:32;;;;;;;50.20;20.80;;;;;;;-0.03;68.48;98269.94;5124588;28;20035;-75
2022/02/17 01:13:58;;;;;;;49.47;21.73;;;;;;;-0.07;68.41;98250.81;5124846;27;20043;-76
2022/02/17 01:16:24;;;;;;;56.67;25.67;;;;;;;-0.03;68.55;98245.75;5129852;27;20051;-75
2022/02/17 01:18:51;;;;;;;61.55;24.42;;;;;;;-0.09;68.64;98254.81;5105870;28;20055;-76
2022/02/17 01:21:20;;;;;;;55.73;23.63;;;;;;;-0.04;68.43;98244.97;5123562;27;20495;-75
2022/02/17 01:23:46;;;;;;;55.40;23.43;;;;;;;-0.07;68.54;98236.56;5106605;28;20096;-75
2022/02/17 01:26:14;;;;;;;48.55;21.63;;;;;;;-0.06;68.47;98222.06;5112857;28;20055;-75
2022/02/17 01:28:54;;;;;;;44.07;21.53;;;;;;;-0.06;68.42;98211.31;5092433;28;20507;-74
2022/02/17 01:31:26;;;;;;;43.00;21.00;;;;;;;-0.05;68.55;98202.19;5118466;28;20058;-75
2022/02/17 01:34:14;;;;;;;44.57;19.93;;;;;;;-0.05;68.42;98213.75;5081939;27;20137;-75
2022/02/17 01:36:52;;;;;;;37.00;17.98;;;;;;;-0.06;68.52;98209.44;5091531;28;20043;-75
2022/02/17 01:39:18;;;;;;;41.13;18.47;;;;;;;-0.08;68.41;98203.50;5080172;28;20047;-76
2022/02/17 01:41:44;;;;;;;41.47;18.57;;;;;;;-0.17;68.60;98195.00;5082679;27;20054;-75
2022/02/17 01:44:16;;;;;;;39.77;19.10;;;;;;;-0.09;68.41;98209.91;5127954;27;20050;-75
2022/02/17 01:46:46;;;;;;;45.23;20.80;;;;;;;-0.04;68.39;98190.38;5102593;28;20063;-75
2022/02/17 01:49:12;;;;;;;;;;;;;;;-0.03;68.40;98189.31;5113617;28;20051;-75
2022/02/17 01:51:39;;;;;;;50.30;21.37;;;;;;;-0.03;68.21;98175.88;5112514;27;19980;-76
2022/02/17 01:54:06;;;;;;;42.23;21.47;;;;;;;-0.03;68.23;98181.25;5103802;28;20091;-76
2022/02/17 01:56:35;;;;;;;61.53;25.97;;;;;;;0.00;68.18;98167.34;5128571;28;20043;-76
2022/02/17 01:59:09;;;;;;;48.53;22.40;;;;;;;-0.08;68.21;98157.81;5123933;28;20060;-76
2022/02/17 02:01:39;;;;;;;43.40;20.20;;;;;;;-0.04;68.15;98155.44;5090058;28;20580;-76
2022/02/17 02:04:06;;;;;;;50.67;22.63;;;;;;;-0.05;68.36;98153.81;5107377;28;20051;-75
2022/02/17 02:06:32;;;;;;;43.53;19.97;;;;;;;-0.10;68.34;98133.06;5081187;28;20498;-75
2022/02/17 02:09:03;;;;;;;41.70;19.23;;;;;;;-0.10;68.25;98137.63;5108040;27;20054;-75
2022/02/17 02:11:43;;;;;;;39.10;19.52;;;;;;;-0.16;68.53;98139.41;5108982;28;20096;-75
2022/02/17 02:14:14;;;;;;;46.93;20.43;;;;;;;-0.18;68.55;98145.03;5104204;28;20350;-73
2022/02/17 02:16:42;;;;;;;46.33;21.67;;;;;;;-0.19;68.53;98140.72;5106813;28;20140;-74
2022/02/17 02:19:10;;;;;;;;;;;;;;;-0.11;68.67;98152.91;5104284;27;20074;-75
2022/02/17 02:21:38;;;;;;;45.42;21.17;;;;;;;-0.18;68.43;98128.91;5113222;28;19923;-76
2022/02/17 02:24:05;;;;;;;49.75;20.33;;;;;;;-0.18;68.75;98144.22;5122779;28;20051;-75
2022/02/17 02:26:32;;;;;;;46.03;19.20;;;;;;;-0.21;68.93;98142.03;5112891;28;20047;-75
2022/02/17 02:29:00;;;;;;;44.08;19.73;;;;;;;-0.21;68.84;98139.34;5103308;28;20044;-71
2022/02/17 02:31:26;;;;;;;58.42;22.63;;;;;;;-0.23;68.88;98119.97;5115641;28;20039;-70
2022/02/17 02:33:55;;;;;;;44.93;19.43;;;;;;;-0.31;69.11;98129.25;5123018;28;20047;-70
2022/02/17 02:36:22;;;;;;;39.13;18.55;;;;;;;-0.27;69.31;98116.97;5125494;27;20555;-71
2022/02/17 02:38:49;;;;;;;47.47;19.30;;;;;;;-0.35;69.44;98111.97;5107851;28;20055;-70
2022/02/17 02:41:19;;;;;;;41.00;18.40;;;;;;;-0.34;69.52;98100.19;5100191;28;20168;-67
2022/02/17 02:43:47;;;;;;;42.47;17.97;;;;;;;-0.31;69.49;98116.63;5103270;28;20101;-70
2022/02/17 02:46:15;;;;;;;38.70;19.00;;;;;;;-0.27;69.46;98110.75;5100300;27;20456;-73
2022/02/17 02:48:44;;;;;;;36.27;17.50;;;;;;;-0.39;69.75;98084.00;5110944;28;20043;-71
2022/02/17 02:51:13;;;;;;;38.57;17.77;;;;;;;-0.32;70.01;98106.13;5121853;27;20043;-71
2022/02/17 02:53:40;;;;;;;37.38;17.13;;;;;;;-0.32;70.10;98111.50;5100289;28;20051;-73
2022/02/17 02:56:06;;;;;;;37.13;17.67;;;;;;;-0.33;70.04;98113.38;5107769;27;20043;-72
2022/02/17 02:58:33;;;;;;;35.38;15.90;;;;;;;-0.33;70.24;98112.56;5124837;28;20047;-72
2022/02/17 03:01:00;;;;;;;35.77;16.70;;;;;;;-0.36;70.36;98100.44;5108612;28;20043;-72
2022/02/17 03:03:27;;;;;;;34.67;15.90;;;;;;;-0.39;70.35;98125.09;5120233;28;20053;-71
2022/02/17 03:05:54;;;;;;;34.22;16.13;;;;;;;-0.39;70.70;98103.63;5108423;27;20274;-71
2022/02/17 03:08:20;;;;;;;37.87;16.53;;;;;;;-0.39;70.42;98090.19;5121214;28;20562;-71
2022/02/17 03:10:46;;;;;;;32.90;15.27;;;;;;;-0.32;70.70;98090.00;5103928;28;20058;-71
2022/02/17 03:13:35;;;;;;;33.37;15.43;;;;;;;-0.33;70.36;98097.25;5086301;28;20051;-70
2022/02/17 03:16:01;;;;;;;37.53;16.88;;;;;;;-0.33;70.78;98096.44;5112732;28;20057;-69
2022/02/17 03:18:29;;;;;;;33.95;15.77;;;;;;;-0.37;70.81;98087.25;5098683;28;20050;-71
2022/02/17 03:20:55;;;;;;;33.97;15.97;;;;;;;-0.37;70.92;98069.28;5107749;28;20065;-71
2022/02/17 03:23:21;;;;;;;33.03;15.93;;;;;;;-0.38;71.13;98075.69;5106349;28;20116;-71
2022/02/17 03:25:53;;;;;;;33.87;15.43;;;;;;;-0.27;71.22;98073.97;5105229;28;20148;-72
2022/02/17 03:28:21;;;;;;;36.70;15.77;;;;;;;-0.28;71.30;98050.88;5110520;28;20047;-71
2022/02/17 03:30:55;;;;;;;37.67;16.93;;;;;;;-0.25;71.26;98039.63;5106907;28;20489;-71
2022/02/17 03:33:23;;;;;;;31.37;15.37;;;;;;;-0.27;71.43;98032.84;5102170;27;20043;-71
2022/02/17 03:35:55;;;;;;;31.40;14.13;;;;;;;-0.29;71.61;98033.13;5098558;28;20125;-71
2022/02/17 03:38:22;;;;;;;32.93;15.90;;;;;;;-0.25;71.67;98018.13;5111093;28;20521;-71
2022/02/17 03:40:52;;;;;;;31.10;14.17;;;;;;;-0.29;71.93;98023.19;5089812;28;20069;-70
2022/02/17 03:43:20;;;;;;;34.90;15.60;;;;;;;-0.26;72.01;98016.50;5107659;28;20083;-71
2022/02/17 03:45:47;;;;;;;33.20;14.87;;;;;;;-0.22;72.05;98017.63;5101420;28;20074;-72
2022/02/17 03:48:14;;;;;;;30.37;13.87;;;;;;;-0.22;72.16;98004.19;5123007;28;20103;-73
2022/02/17 03:50:47;;;;;;;29.10;12.83;;;;;;;-0.22;72.11;97982.72;5104487;27;20478;-72
2022/02/17 03:53:16;;;;;;;33.40;14.33;;;;;;;-0.20;72.14;97980.56;5105056;28;20042;-70
2022/02/17 03:55:46;;;;;;;29.13;14.07;;;;;;;-0.17;72.28;97973.91;5120055;27;20051;-73
2022/02/17 03:59:00;;;;;;;32.27;13.67;;;;;;;-0.17;72.14;97977.38;5089376;28;20086;-73
2022/02/17 04:01:07;;;;;;;39.87;14.43;;;;;;;-0.30;72.33;97950.91;5101393;28;20411;-72
2022/02/17 04:03:39;;;;;;;39.40;16.13;;;;;;;-0.21;72.21;97956.66;5122454;28;20051;-71
2022/02/17 04:06:07;;;;;;;38.40;14.20;;;;;;;-0.20;72.41;97953.72;5126772;28;20047;-70
2022/02/17 04:08:35;;;;;;;41.50;15.82;;;;;;;-0.29;72.43;97917.63;5102872;28;20051;-72
2022/02/17 04:11:02;;;;;;;45.63;15.57;;;;;;;-0.18;72.29;97959.66;5104527;28;20052;-70
2022/02/17 04:13:34;;;;;;;34.40;14.33;;;;;;;-0.12;72.45;97978.53;5105911;28;20138;-72
2022/02/17 04:16:02;;;;;;;37.28;15.68;;;;;;;-0.09;72.29;97969.97;5120572;28;20100;-70
2022/02/17 04:18:58;;;;;;;34.40;14.60;;;;;;;-0.20;72.16;97934.91;5097021;27;20065;-70
2022/02/17 04:21:35;;;;;;;39.67;14.43;;;;;;;-0.05;71.91;97950.41;5101866;28;20043;-71
2022/02/17 04:24:19;;;;;;;38.40;14.13;;;;;;;-0.02;71.90;97949.09;5119185;28;20039;-72
2022/02/17 04:26:55;;;;;;;30.63;13.90;;;;;;;0.02;71.90;97935.97;5104905;28;20486;-71
2022/02/17 04:29:33;;;;;;;33.33;14.10;;;;;;;0.01;71.74;97937.84;5085641;28;20503;-72
2022/02/17 04:32:01;;;;;;;;;;;;;;;0.03;71.82;97922.28;5101943;28;20047;-71
2022/02/17 04:34:29;;;;;;;39.58;14.30;;;;;;;0.05;71.71;97898.66;5101797;28;19923;-72
2022/02/17 04:37:05;;;;;;;39.47;16.13;;;;;;;0.06;71.63;97900.28;5101743;27;20047;-71
2022/02/17 04:39:32;;;;;;;37.70;15.43;;;;;;;0.06;71.69;97892.22;5124508;27;20074;-72
2022/02/17 04:42:18;;;;;;;32.45;13.60;;;;;;;0.09;71.62;97891.72;5105277;28;20050;-72
2022/02/17 04:44:45;;;;;;;32.83;14.57;;;;;;;0.10;71.75;97909.44;5110725;28;20054;-71
2022/02/17 04:47:11;;;;;;;29.57;13.53;;;;;;;0.12;72.00;97901.94;5123784;27;20062;-71
2022/02/17 04:49:38;;;;;;;33.53;13.70;;;;;;;0.13;71.63;97883.97;5092704;27;20070;-72
2022/02/17 04:52:05;;;;;;;34.78;14.20;;;;;;;0.18;71.55;97880.50;5090622;28;20510;-70
2022/02/17 04:54:32;;;;;;;31.35;14.30;;;;;;;0.19;71.39;97874.88;5105883;28;20138;-71
2022/02/17 04:57:00;;;;;;;33.70;14.23;;;;;;;0.21;71.12;97875.41;5095543;27;20114;-72
2022/02/17 04:59:30;;;;;;;37.40;14.40;;;;;;;0.23;71.33;97877.88;5122119;28;20047;-72
2022/02/17 05:01:57;;;;;;;41.63;15.00;;;;;;;0.24;71.09;97864.19;5112900;28;20039;-73
2022/02/17 05:04:37;;;;;;;34.23;14.47;;;;;;;0.27;70.91;97852.91;5108986;27;20038;-70
2022/02/17 05:07:11;;;;;;;31.80;13.90;;;;;;;0.27;70.99;97841.34;5097765;28;20103;-72
2022/02/17 05:09:37;;;;;;;33.07;13.83;;;;;;;0.27;70.82;97847.53;5099263;28;20097;-71
2022/02/17 05:12:04;;;;;;;35.03;13.53;;;;;;;0.27;70.50;97841.34;5086341;28;20409;-70
2022/02/17 05:14:31;;;;;;;29.90;12.47;;;;;;;0.30;70.53;97832.75;5121203;27;20047;-71
2022/02/17 05:16:58;;;;;;;32.70;12.70;;;;;;;0.29;70.59;97852.63;5108587;28;20039;-71
2022/02/17 05:19:26;;;;;;;30.30;12.40;;;;;;;0.32;70.17;97840.56;5108521;28;20035;-72
2022/02/17 05:22:14;;;;;;;28.07;12.43;;;;;;;0.33;70.28;97834.13;5089775;28;20039;-70
2022/02/17 05:24:43;;;;;;;30.93;12.10;;;;;;;0.34;70.41;97825.81;5111784;28;20576;-72
2022/02/17 05:27:29;;;;;;;29.63;11.90;;;;;;;0.34;70.11;97819.63;5092147;28;20053;-73
2022/02/17 05:30:14;;;;;;;29.43;11.43;;;;;;;0.34;70.04;97808.84;5117801;28;20051;-73
2022/02/17 05:32:59;;;;;;;25.90;10.00;;;;;;;0.27;69.75;97823.34;5087138;28;20044;-70
2022/02/17 05:35:49;;;;;;;27.73;10.77;;;;;;;0.32;69.36;97822.56;5106163;28;20056;-72
2022/02/17 05:38:38;;;;;;;26.60;10.57;;;;;;;0.33;69.42;97821.50;5098409;28;20127;-70
2022/02/17 05:41:24;;;;;;;20.57;9.10;;;;;;;0.34;69.29;97820.44;5087977;28;20066;-71
2022/02/17 05:43:50;;;;;;;23.17;9.30;;;;;;;0.36;69.19;97817.47;5089004;28;20056;-72
2022/02/17 05:46:16;;;;;;;21.00;8.57;;;;;;;0.38;68.96;97812.66;5083686;28;20036;-71
2022/02/17 05:48:42;;;;;;;24.33;9.80;;;;;;;0.38;68.90;97797.34;5084124;28;20044;-72
2022/02/17 05:51:10;;;;;;;19.63;9.43;;;;;;;0.33;68.95;97800.00;5083641;28;20075;-72
2022/02/17 05:53:36;;;;;;;21.10;9.65;;;;;;;0.38;68.88;97791.97;5080941;28;20052;-70
2022/02/17 05:56:03;;;;;;;22.27;9.50;;;;;;;0.40;68.94;97789.03;5088669;28;20048;-72
2022/02/17 05:58:31;;;;;;;25.17;9.53;;;;;;;0.36;68.54;97761.00;5074715;28;20512;-73
2022/02/17 06:00:57;;;;;;;25.93;9.00;;;;;;;0.45;68.62;97772.09;5084247;28;20134;-71
2022/02/17 06:03:23;;;;;;;27.90;10.37;;;;;;;0.44;68.45;97757.84;5088356;28;20036;-71
2022/02/17 06:05:51;;;;;;;24.27;10.63;;;;;;;0.45;68.48;97750.59;5087350;28;20063;-69
2022/02/17 06:08:17;;;;;;;25.52;10.02;;;;;;;0.45;68.57;97734.44;5086664;28;20044;-73
2022/02/17 06:10:44;;;;;;;24.10;9.20;;;;;;;0.48;68.61;97748.19;5102387;28;20045;-72
2022/02/17 06:13:11;;;;;;;35.30;10.33;;;;;;;0.47;68.68;97740.38;5069045;28;20051;-71
2022/02/17 06:15:38;;;;;;;22.95;9.23;;;;;;;0.48;68.58;97742.81;5099465;28;20056;-73
2022/02/17 06:18:04;;;;;;;28.98;10.00;;;;;;;0.45;68.78;97732.59;5093842;28;20129;-71
2022/02/17 06:20:31;;;;;;;23.20;9.97;;;;;;;0.47;68.75;97746.56;5085650;28;20067;-73
2022/02/17 06:22:57;;;;;;;25.57;9.93;;;;;;;0.43;68.91;97742.78;5061577;28;20056;-73
2022/02/17 06:25:23;;;;;;;19.63;8.83;;;;;;;0.45;69.02;97747.91;5082922;28;20502;-73
2022/02/17 06:27:50;;;;;;;25.23;9.43;;;;;;;0.50;68.87;97729.13;5083912;28;20048;-73
2022/02/17 06:30:18;;;;;;;20.87;9.30;;;;;;;0.46;69.04;97733.38;5085089;28;20047;-73
2022/02/17 06:32:46;;;;;;;23.63;9.93;;;;;;;0.47;69.02;97732.31;5087922;28;20097;-73
2022/02/17 06:35:12;;;;;;;18.50;8.60;;;;;;;0.44;69.27;97730.16;5101513;28;20045;-71
2022/02/17 06:37:38;;;;;;;22.53;8.80;;;;;;;0.38;69.27;97700.53;5080463;28;20317;-71
2022/02/17 06:40:06;;;;;;;19.23;9.53;;;;;;;0.45;69.26;97710.25;5088058;28;20059;-73
2022/02/17 06:42:32;;;;;;;20.27;9.40;;;;;;;0.38;69.47;97695.16;5076924;28;20052;-74
2022/02/17 06:44:58;;;;;;;20.23;8.47;;;;;;;0.40;69.67;97702.97;5083206;28;20085;-73
2022/02/17 06:47:26;;;;;;;20.33;9.45;;;;;;;0.36;69.71;97707.25;5087427;28;20523;-69
2022/02/17 06:49:52;;;;;;;21.27;8.93;;;;;;;0.41;69.71;97688.47;5085221;28;20040;-70
2022/02/17 06:52:18;;;;;;;20.00;8.73;;;;;;;0.42;69.66;97690.88;5099418;28;20409;-69
2022/02/17 06:54:44;;;;;;;21.73;10.03;;;;;;;0.48;69.77;97672.09;5087567;28;20048;-69
2022/02/17 06:57:10;;;;;;;23.87;9.67;;;;;;;0.50;69.71;97664.59;5079346;28;20040;-70
2022/02/17 06:59:38;;;;;;;22.90;9.77;;;;;;;0.49;69.71;97682.59;5088317;28;20504;-68
2022/02/17 07:02:04;;;;;;;28.45;10.40;;;;;;;0.49;69.81;97676.41;5083324;28;20047;-69
2022/02/17 07:04:31;;;;;;;23.83;10.03;;;;;;;0.47;69.87;97652.47;5098425;28;20090;-68
2022/02/17 07:06:57;;;;;;;20.73;9.47;;;;;;;0.50;70.00;97665.38;5088687;28;20136;-69
2022/02/17 07:09:23;;;;;;;19.43;9.27;;;;;;;0.55;69.76;97640.41;5089268;28;20078;-69
2022/02/17 07:11:49;;;;;;;24.30;9.93;;;;;;;0.59;69.67;97648.75;5084143;28;20044;-69
2022/02/17 07:14:15;;;;;;;23.57;10.33;;;;;;;0.43;69.99;97616.41;5103734;28;20147;-68
2022/02/17 07:16:42;;;;;;;23.27;9.67;;;;;;;0.58;69.91;97641.75;5079853;28;20138;-70
2022/02/17 07:19:08;;;;;;;22.90;10.30;;;;;;;0.65;69.70;97634.25;5106261;28;20525;-70
2022/02/17 07:21:35;;;;;;;22.03;10.07;;;;;;;0.67;69.87;97622.16;5088523;28;20054;-69
2022/02/17 07:24:01;;;;;;;19.98;8.88;;;;;;;0.68;69.73;97598.75;5086169;28;20052;-69
2022/02/17 07:26:30;;;;;;;20.55;9.32;;;;;;;0.68;69.77;97613.00;5069778;28;20408;-70
2022/02/17 07:28:56;;;;;;;23.05;9.13;;;;;;;0.65;70.21;97601.97;5084499;28;20040;-69
2022/02/17 07:31:22;;;;;;;22.58;10.00;;;;;;;0.67;69.95;97584.50;5087927;28;20076;-78
2022/02/17 07:33:48;;;;;;;22.17;9.75;;;;;;;0.70;70.00;97593.91;5098595;28;20420;-71
2022/02/17 07:36:16;;;;;;;22.35;10.02;;;;;;;0.76;70.26;97597.41;5085937;28;20062;-71
2022/02/17 07:38:43;;;;;;;;;;;;;;;0.79;70.08;97596.91;5104149;28;20056;-71
2022/02/17 07:41:11;;;;;;;24.57;9.97;;;;;;;0.77;70.13;97562.19;5086981;28;19923;-71
2022/02/17 07:43:36;;;;;;;;;;;;;;;0.81;70.42;97584.78;5086302;28;20060;-71
2022/02/17 07:46:03;;;;;;;20.88;9.07;;;;;;;0.81;70.44;97544.44;5081199;28;20027;-70
2022/02/17 07:48:29;;;;;;;18.07;8.40;;;;;;;0.65;70.83;97527.47;5079709;28;20048;-69
2022/02/17 07:50:56;;;;;;;21.00;10.10;;;;;;;0.87;70.80;97531.81;5079304;28;20561;-70
2022/02/17 07:53:23;;;;;;;23.27;10.40;;;;;;;0.91;70.78;97550.94;5097537;28;20147;-70
2022/02/17 07:55:49;;;;;;;19.98;9.10;;;;;;;0.88;70.87;97533.41;5088842;28;20052;-70
2022/02/17 07:58:17;;;;;;;24.70;10.05;;;;;;;0.85;70.97;97515.13;5086788;28;20135;-69
2022/02/17 08:00:44;;;;;;;25.53;10.57;;;;;;;0.95;71.02;97525.91;5077294;28;20081;-69
2022/02/17 08:03:11;;;;;;;25.60;10.73;;;;;;;0.95;71.20;97539.38;5085623;28;20043;-71
2022/02/17 08:05:38;;;;;;;24.38;10.88;;;;;;;1.02;71.17;97535.59;5097655;28;20147;-69
2022/02/17 08:08:04;;;;;;;31.98;11.90;;;;;;;1.05;70.97;97538.56;5081380;28;20531;-69
2022/02/17 08:10:31;;;;;;;24.77;11.47;;;;;;;0.98;71.03;97514.59;5082291;28;20085;-71
2022/02/17 08:12:57;;;;;;;28.53;11.50;;;;;;;1.06;71.26;97531.28;5087058;28;20059;-71
2022/02/17 08:15:23;;;;;;;31.10;12.70;;;;;;;1.06;71.28;97505.19;5082482;28;20135;-69
2022/02/17 08:17:49;;;;;;;25.33;11.88;;;;;;;1.11;71.35;97510.56;5089283;28;20055;-70
2022/02/17 08:20:16;;;;;;;29.52;12.40;;;;;;;1.16;71.39;97514.31;5090214;28;20044;-72
2022/02/17 08:22:48;;;;;;;25.05;10.65;;;;;;;1.19;71.74;97522.69;5088465;28;20147;-71
2022/02/17 08:25:17;;;;;;;28.17;12.38;;;;;;;1.24;71.26;97525.38;5088542;28;20048;-71
2022/02/17 08:27:43;;;;;;;41.35;14.68;;;;;;;1.20;71.09;97494.69;5088939;28;20043;-71
2022/02/17 08:30:11;;;;;;;26.67;11.93;;;;;;;1.29;71.18;97510.31;5086495;28;20048;-71
2022/02/17 08:32:37;;;;;;;28.10;12.10;;;;;;;1.27;71.27;97518.66;5090953;28;20052;-72
2022/02/17 08:35:06;;;;;;;27.43;11.93;;;;;;;1.30;71.45;97518.09;5085815;28;20468;-71
2022/02/17 08:37:33;;;;;;;34.22;11.93;;;;;;;1.35;71.39;97519.97;5080724;28;20059;-71
2022/02/17 08:40:00;;;;;;;23.93;11.03;;;;;;;1.31;71.41;97473.13;5090698;28;20419;-71
2022/02/17 08:42:27;;;;;;;26.48;11.85;;;;;;;1.38;71.47;97492.50;5088563;28;20484;-72
2022/02/17 08:44:53;;;;;;;27.25;11.27;;;;;;;1.42;71.31;97490.91;5091487;28;20040;-71
2022/02/17 08:47:22;;;;;;;24.90;10.80;;;;;;;1.41;71.47;97495.47;5090854;28;20044;-71
2022/02/17 08:49:48;;;;;;;23.20;11.10;;;;;;;1.38;71.80;97481.75;5057938;28;20044;-71
2022/02/17 08:52:15;;;;;;;26.07;12.40;;;;;;;1.40;71.48;97474.19;5086199;28;20052;-71
2022/02/17 08:54:42;;;;;;;27.02;11.93;;;;;;;1.50;71.52;97478.78;5080602;28;20135;-71
2022/02/17 08:57:08;;;;;;;29.02;11.25;;;;;;;1.48;71.66;97489.00;5088777;28;20071;-69
2022/02/17 08:59:34;;;;;;;26.13;11.63;;;;;;;1.37;71.68;97463.97;5088004;28;20048;-70
2022/02/17 09:02:00;;;;;;;28.15;12.23;;;;;;;1.55;71.57;97481.47;5087582;28;20079;-71
2022/02/17 09:04:28;;;;;;;30.00;12.25;;;;;;;1.58;71.58;97486.28;5089286;28;20066;-69
2022/02/17 09:06:55;;;;;;;28.00;12.23;;;;;;;1.60;71.74;97480.63;5097389;28;21609;-70
2022/02/17 09:09:21;;;;;;;24.25;11.45;;;;;;;1.63;71.71;97483.56;5083443;28;20059;-71
2022/02/17 09:11:47;;;;;;;25.10;12.13;;;;;;;1.69;71.57;97455.56;5082977;28;20032;-70
2022/02/17 09:14:13;;;;;;;28.20;11.35;;;;;;;1.68;71.51;97448.56;5084628;28;20067;-71
2022/02/17 09:16:40;;;;;;;27.77;12.05;;;;;;;1.72;71.46;97445.31;5082304;28;20469;-72
2022/02/17 09:19:06;;;;;;;27.30;12.68;;;;;;;1.79;71.14;97460.09;5091269;28;20048;-73
2022/02/17 09:21:33;;;;;;;30.98;12.45;;;;;;;1.79;71.36;97429.66;5104428;28;20040;-72
2022/02/17 09:24:00;;;;;;;24.15;11.88;;;;;;;1.83;71.36;97441.50;5086926;28;20047;-71
2022/02/17 09:26:29;;;;;;;26.27;12.10;;;;;;;1.87;71.28;97436.34;5087489;28;20048;-69
2022/02/17 09:28:55;;;;;;;26.92;11.98;;;;;;;1.89;71.19;97426.91;5090942;28;20051;-71
2022/02/17 09:31:23;;;;;;;24.90;11.02;;;;;;;1.90;71.31;97427.75;5089272;28;20138;-71
2022/02/17 09:33:50;;;;;;;29.40;12.57;;;;;;;1.92;71.32;97420.97;5085368;28;20051;-71
2022/02/17 09:36:16;;;;;;;25.38;11.75;;;;;;;1.92;71.50;97423.66;5100793;28;20459;-71
2022/02/17 09:38:43;;;;;;;26.35;11.75;;;;;;;1.96;71.26;97395.09;5088751;28;20064;-70
2022/02/17 09:41:14;;;;;;;26.30;11.73;;;;;;;1.91;71.37;97384.31;5090717;28;20097;-71
2022/02/17 09:43:41;;;;;;;26.48;11.63;;;;;;;1.93;71.43;97346.31;5086521;28;20098;-71
2022/02/17 09:46:07;;;;;;;28.73;11.87;;;;;;;1.99;71.33;97374.84;5085759;28;20451;-71
2022/02/17 09:48:33;;;;;;;30.17;13.10;;;;;;;2.02;71.11;97347.34;5100551;28;20397;-72
2022/02/17 09:51:00;;;;;;;26.23;11.25;;;;;;;2.05;70.97;97373.75;5088285;28;20553;-73
2022/02/17 09:53:26;;;;;;;28.92;12.20;;;;;;;2.08;71.09;97361.59;5105626;28;20048;-71
2022/02/17 09:55:53;;;;;;;25.17;11.82;;;;;;;2.10;71.02;97356.72;5084996;28;20085;-72
2022/02/17 09:58:19;;;;;;;29.75;12.70;;;;;;;2.11;70.92;97352.97;5101260;28;20048;-72
2022/02/17 10:00:46;;;;;;;29.85;11.45;;;;;;;2.04;70.94;97355.97;5085256;28;20052;-72
2022/02/17 10:03:20;;;;;;;28.42;11.32;;;;;;;2.09;71.02;97345.16;5089209;28;20044;-73
2022/02/17 10:06:02;;;;;;;25.95;11.55;;;;;;;2.14;70.50;97355.09;5087076;28;20055;-70
2022/02/17 10:08:28;;;;;;;28.70;12.15;;;;;;;2.16;70.69;97330.53;5097250;28;20063;-71
2022/02/17 10:10:55;;;;;;;33.20;12.52;;;;;;;2.23;70.37;97334.53;5089215;28;20117;-72
2022/02/17 10:13:21;;;;;;;25.55;11.40;;;;;;;2.28;70.31;97338.31;5071356;28;20462;-72
2022/02/17 10:15:52;;;;;;;29.63;12.05;;;;;;;2.30;70.22;97323.44;5096113;28;20047;-70
2022/02/17 10:18:21;;;;;;;32.47;12.95;;;;;;;2.33;70.09;97322.84;5102635;28;20083;-70
2022/02/17 10:20:53;;;;;;;34.05;13.23;;;;;;;2.34;70.04;97311.00;5106331;28;20072;-71
2022/02/17 10:23:19;;;;;;;27.40;11.32;;;;;;;2.40;69.84;97327.94;5090729;28;20508;-73
2022/02/17 10:26:05;;;;;;;31.70;13.07;;;;;;;2.37;69.77;97306.94;5086759;28;20454;-72
2022/02/17 10:28:36;;;;;;;30.52;12.30;;;;;;;2.41;69.66;97307.97;5090474;28;20504;-73
2022/02/17 10:31:04;;;;;;;33.28;13.00;;;;;;;2.47;69.82;97297.94;5088823;28;20507;-72
2022/02/17 10:33:43;;;;;;;;;;;;;;;2.49;69.44;97301.97;5056488;28;20082;-74
2022/02/17 10:36:10;;;;;;;24.80;11.15;;;;;;;2.49;69.38;97255.31;5103120;28;19974;-74
2022/02/17 10:38:37;;;;;;;29.73;12.32;;;;;;;2.50;69.29;97235.34;5081532;28;20044;-73
2022/02/17 10:41:04;;;;;;;28.25;13.48;;;;;;;2.50;69.26;97249.63;5089763;28;20181;-74
2022/02/17 10:43:32;;;;;;;29.38;11.68;;;;;;;2.54;69.33;97244.47;5090754;28;20051;-75
2022/02/17 10:46:05;;;;;;;28.50;12.32;;;;;;;2.57;69.17;97243.09;5091409;28;20108;-73
2022/02/17 10:48:32;;;;;;;37.95;13.35;;;;;;;2.55;69.08;97214.50;5089060;28;20131;-74
2022/02/17 10:51:08;;;;;;;31.98;13.05;;;;;;;2.61;69.22;97226.06;5085974;28;20582;-71
2022/02/17 10:53:36;;;;;;;30.38;13.35;;;;;;;2.65;69.02;97220.91;5088967;28;20147;-73
2022/02/17 10:56:05;;;;;;;31.67;13.35;;;;;;;2.67;68.82;97211.44;5090149;28;20066;-73
2022/02/17 10:58:36;;;;;;;33.78;13.50;;;;;;;2.68;68.80;97180.66;5089496;28;20054;-76
2022/02/17 11:01:06;;;;;;;30.40;13.35;;;;;;;2.67;68.71;97197.13;5106161;28;20055;-76
2022/02/17 11:03:34;;;;;;;32.15;14.82;;;;;;;2.68;68.77;97187.94;5086292;28;20052;-78
2022/02/17 11:06:03;;;;;;;31.42;14.65;;;;;;;2.73;68.67;97193.25;5102245;28;20039;-78
2022/02/17 11:08:32;;;;;;;36.40;15.10;;;;;;;2.74;68.58;97172.50;5071432;28;20047;-78
2022/02/17 11:10:59;;;;;;;33.83;14.87;;;;;;;2.69;68.47;97182.25;5047350;28;20051;-79
2022/02/17 11:13:30;;;;;;;32.55;15.30;;;;;;;2.71;68.43;97154.97;5071837;28;20072;-76
2022/02/17 11:16:02;;;;;;;36.38;15.75;;;;;;;2.80;68.42;97164.06;5088234;28;20047;-78
2022/02/17 11:18:29;;;;;;;34.05;15.00;;;;;;;2.75;68.36;97156.03;5083853;28;20047;-72
2022/02/17 11:20:57;;;;;;;41.73;16.47;;;;;;;2.79;68.44;97140.84;5085150;28;20488;-71
2022/02/17 11:23:31;;;;;;;34.38;16.30;;;;;;;2.77;68.23;97144.94;5089866;28;20306;-70
2022/02/17 11:25:59;;;;;;;33.45;15.77;;;;;;;2.81;68.04;97154.03;5106002;28;20142;-70
2022/02/17 11:28:34;;;;;;;32.45;15.18;;;;;;;2.78;68.15;97127.63;5106291;28;20050;-70
2022/02/17 11:31:03;;;;;;;34.42;12.88;;;;;;;2.76;68.02;97135.22;5090645;28;20040;-72